createdAt,value
2022-12-19T00:51:09.201Z,19.07
2022-12-19T00:54:12.303Z,19.07
2022-12-19T00:57:16.195Z,19.23
2022-12-19T01:00:19.591Z,18.00
2022-12-19T01:03:22.691Z,18.17
2022-12-19T01:06:28.890Z,17.23
2022-12-19T01:09:32.598Z,17.40
2022-12-19T01:12:47.753Z,18.90
2022-12-19T01:15:51.186Z,19.50
2022-12-19T01:18:54.334Z,19.83
2022-12-19T01:21:58.817Z,18.80
2022-12-19T01:25:02.065Z,20.10
2022-12-19T01:28:06.102Z,18.47
2022-12-19T01:31:09.245Z,19.67
2022-12-19T01:34:15.221Z,19.27
2022-12-19T01:37:20.212Z,18.07
2022-12-19T01:40:23.606Z,21.33
2022-12-19T01:43:27.942Z,20.53
2022-12-19T01:46:36.722Z,20.87
2022-12-19T01:49:40.027Z,19.03
2022-12-19T01:52:45.384Z,19.40
2022-12-19T01:55:49.373Z,20.57
2022-12-19T01:59:00.562Z,19.57
2022-12-19T02:02:14.894Z,19.90
2022-12-19T02:05:18.195Z,20.90
2022-12-19T02:08:24.526Z,17.93
2022-12-19T02:11:27.652Z,18.57
2022-12-19T02:14:31.154Z,17.13
2022-12-19T02:17:45.234Z,21.17
2022-12-19T02:21:14.980Z,19.43
2022-12-19T02:25:00.069Z,18.67
2022-12-19T02:28:44.670Z,19.90
2022-12-19T02:31:53.183Z,19.73
2022-12-19T02:35:01.749Z,18.47
2022-12-19T02:38:12.892Z,19.43
2022-12-19T02:41:22.828Z,20.60
2022-12-19T02:44:31.692Z,21.50
2022-12-19T02:47:37.544Z,20.13
2022-12-19T02:50:42.373Z,19.30
2022-12-19T02:53:45.556Z,19.53
2022-12-19T02:56:53.939Z,18.27
2022-12-19T03:00:04.796Z,18.37
2022-12-19T03:03:16.339Z,18.33
2022-12-19T03:06:26.233Z,18.20
2022-12-19T03:09:41.798Z,18.03
2022-12-19T03:12:51.397Z,16.17
2022-12-19T03:15:54.783Z,19.63
2022-12-19T03:18:59.619Z,16.50
2022-12-19T03:22:02.932Z,16.30
2022-12-19T03:25:06.710Z,17.70
2022-12-19T03:28:15.270Z,17.50
2022-12-19T03:31:21.897Z,17.10
2022-12-19T03:34:30.552Z,17.10
2022-12-19T03:37:37.684Z,18.00
2022-12-19T03:40:43.931Z,16.20
2022-12-19T03:43:46.598Z,16.80
2022-12-19T03:46:57.981Z,18.63
2022-12-19T03:50:02.727Z,16.60
2022-12-19T03:53:12.568Z,16.60
2022-12-19T03:56:21.633Z,15.50
2022-12-19T03:59:33.080Z,16.77
2022-12-19T04:02:38.949Z,16.27
2022-12-19T04:05:44.863Z,17.70
2022-12-19T04:08:48.445Z,14.57
2022-12-19T04:11:55.389Z,17.27
2022-12-19T04:14:58.620Z,18.13
2022-12-19T04:18:02.831Z,16.40
2022-12-19T04:21:13.010Z,17.50
2022-12-19T04:24:20.424Z,17.50
2022-12-19T04:27:24.125Z,17.83
2022-12-19T04:30:27.374Z,18.20
2022-12-19T04:33:30.489Z,17.60
2022-12-19T04:36:35.009Z,16.17
2022-12-19T04:39:38.151Z,17.50
2022-12-19T04:42:41.279Z,18.37
2022-12-19T04:45:44.705Z,17.40
2022-12-19T04:48:48.466Z,17.23
2022-12-19T04:51:52.978Z,17.00
2022-12-19T04:54:56.779Z,17.80
2022-12-19T04:58:02.609Z,18.30
2022-12-19T05:01:07.471Z,17.70
2022-12-19T05:04:10.846Z,19.70
2022-12-19T05:07:16.126Z,18.77
2022-12-19T05:10:19.531Z,17.80
2022-12-19T05:13:22.665Z,19.47
2022-12-19T05:16:25.815Z,18.17
2022-12-19T05:19:29.130Z,17.77
2022-12-19T05:22:33.614Z,17.93
2022-12-19T05:25:37.244Z,19.73
2022-12-19T05:28:40.628Z,18.33
2022-12-19T05:31:43.784Z,17.53
2022-12-19T05:34:46.893Z,20.00
2022-12-19T05:37:51.380Z,18.83
2022-12-19T05:40:54.594Z,17.13
2022-12-19T05:43:58.245Z,16.00
2022-12-19T05:47:01.398Z,17.63
2022-12-19T05:50:05.789Z,16.70
2022-12-19T05:53:10.394Z,16.67
2022-12-19T05:56:16.024Z,18.43
2022-12-19T05:59:19.325Z,16.90
2022-12-19T06:02:22.617Z,17.57
2022-12-19T06:05:25.833Z,18.23
2022-12-19T06:08:30.412Z,18.37
2022-12-19T06:11:33.527Z,17.03
2022-12-19T06:14:36.725Z,17.80
2022-12-19T06:17:39.885Z,17.47
2022-12-19T06:20:42.992Z,17.67
2022-12-19T06:23:48.107Z,17.63
2022-12-19T06:26:51.278Z,21.23
2022-12-19T06:29:54.820Z,18.30
2022-12-19T06:32:57.937Z,19.17
2022-12-19T06:36:01.935Z,18.83
2022-12-19T06:39:06.511Z,18.23
2022-12-19T06:42:25.217Z,15.70
2022-12-19T06:45:28.402Z,16.53
2022-12-19T06:48:31.680Z,18.33
2022-12-19T06:51:35.141Z,19.60
2022-12-19T06:54:39.672Z,18.90
2022-12-19T06:57:46.542Z,19.77
2022-12-19T07:00:52.558Z,20.90
2022-12-19T07:03:56.080Z,17.37
2022-12-19T07:06:59.722Z,16.87
2022-12-19T07:10:05.432Z,17.40
2022-12-19T07:13:08.538Z,19.23
2022-12-19T07:16:11.765Z,17.70
2022-12-19T07:19:15.258Z,18.40
2022-12-19T07:22:18.482Z,20.30
2022-12-19T07:25:22.991Z,15.97
2022-12-19T07:28:26.430Z,18.47
2022-12-19T07:31:29.605Z,17.30
2022-12-19T07:34:32.719Z,18.43
2022-12-19T07:37:35.843Z,17.20
2022-12-19T07:40:40.331Z,18.43
2022-12-19T07:43:43.471Z,15.93
2022-12-19T07:46:46.823Z,18.30
2022-12-19T07:49:49.950Z,16.90
2022-12-19T07:52:53.079Z,17.40
2022-12-19T07:55:57.614Z,17.57
2022-12-19T07:59:00.734Z,16.77
2022-12-19T08:02:04.240Z,17.63
2022-12-19T08:05:08.121Z,17.47
2022-12-19T08:08:11.228Z,17.67
2022-12-19T08:11:18.264Z,18.40
2022-12-19T08:14:21.680Z,19.40
2022-12-19T08:17:24.948Z,18.37
2022-12-19T08:20:28.370Z,17.43
2022-12-19T08:23:31.512Z,20.03
2022-12-19T08:26:40.521Z,22.27
2022-12-19T08:29:47.567Z,22.47
2022-12-19T08:32:50.744Z,24.30
2022-12-19T08:35:53.851Z,24.37
2022-12-19T08:38:57.627Z,21.67
2022-12-19T08:42:04.412Z,23.03
2022-12-19T08:45:08.913Z,23.83
2022-12-19T08:48:12.076Z,24.40
2022-12-19T08:51:17.092Z,21.37
2022-12-19T08:54:20.268Z,22.07
2022-12-19T08:57:24.825Z,25.27
2022-12-19T09:00:27.941Z,23.37
2022-12-19T09:03:33.356Z,22.93
2022-12-19T09:06:51.122Z,22.77
2022-12-19T09:09:55.004Z,24.00
2022-12-19T09:12:59.991Z,25.17
2022-12-19T09:16:04.686Z,21.97
2022-12-19T09:19:15.331Z,34.17
2022-12-19T09:22:18.516Z,26.00
2022-12-19T09:25:21.839Z,22.63
2022-12-19T09:28:27.636Z,24.73
2022-12-19T09:31:31.528Z,21.70
2022-12-19T09:34:38.464Z,24.90
2022-12-19T09:37:42.034Z,25.70
2022-12-19T09:40:56.637Z,24.03
2022-12-19T09:44:11.085Z,23.73
2022-12-19T09:47:18.726Z,24.50
2022-12-19T09:50:31.996Z,23.73
2022-12-19T09:53:42.689Z,25.37
2022-12-19T09:56:46.946Z,25.30
2022-12-19T09:59:57.442Z,24.50
2022-12-19T10:03:06.154Z,26.67
2022-12-19T10:07:12.886Z,27.50
2022-12-19T10:11:37.267Z,23.87
2022-12-19T10:13:16.387Z,24.87
2022-12-19T10:16:32.252Z,24.60
2022-12-19T10:19:45.338Z,24.50
2022-12-19T10:23:00.873Z,29.67
2022-12-19T10:26:07.851Z,32.13
2022-12-19T10:29:25.767Z,30.40
2022-12-19T10:32:37.794Z,33.40
2022-12-19T10:35:44.262Z,29.10
2022-12-19T10:38:58.354Z,35.23
2022-12-19T10:42:11.968Z,26.63
2022-12-19T10:45:19.101Z,25.00
2022-12-19T10:48:30.582Z,27.00
2022-12-19T10:51:34.531Z,27.50
2022-12-19T10:54:43.763Z,28.67
2022-12-19T10:57:46.949Z,28.37
2022-12-19T11:01:13.119Z,28.60
2022-12-19T11:04:26.510Z,27.20
2022-12-19T11:07:29.655Z,27.60
2022-12-19T11:13:03.797Z,28.27
2022-12-19T11:18:11.661Z,26.77
2022-12-19T11:21:11.155Z,28.20
2022-12-19T11:29:44.791Z,30.30
2022-12-19T11:30:36.057Z,28.30
2022-12-19T11:30:42.889Z,26.17
2022-12-19T11:35:15.563Z,26.80
2022-12-19T11:38:36.839Z,25.50
2022-12-19T11:41:46.806Z,26.80
2022-12-19T11:44:59.192Z,28.20
2022-12-19T11:51:29.172Z,29.43
2022-12-19T11:54:38.209Z,26.70
2022-12-19T11:57:43.258Z,27.30
2022-12-19T12:00:52.528Z,27.93
2022-12-19T12:04:22.262Z,26.70
2022-12-19T12:09:36.095Z,26.90
2022-12-19T12:15:57.064Z,26.67
2022-12-19T12:24:58.850Z,27.13
2022-12-19T12:31:05.599Z,25.10
2022-12-19T12:31:26.998Z,26.90
2022-12-19T12:31:52.920Z,27.20
2022-12-19T12:32:02.524Z,26.97
2022-12-19T12:35:32.682Z,35.37
2022-12-19T12:39:25.404Z,35.43
2022-12-19T12:42:44.731Z,29.87
2022-12-19T12:45:48.148Z,27.77
2022-12-19T12:48:56.379Z,33.27
2022-12-19T12:52:01.677Z,28.83
2022-12-19T12:55:07.516Z,26.60
2022-12-19T12:58:54.123Z,27.57
2022-12-19T13:02:00.567Z,27.73
2022-12-19T13:05:24.502Z,24.40
2022-12-19T13:08:39.523Z,25.60
2022-12-19T13:12:17.068Z,25.60
2022-12-19T13:15:41.390Z,24.23
2022-12-19T13:19:05.446Z,26.33
2022-12-19T13:22:19.433Z,24.53
2022-12-19T13:25:50.550Z,26.13
2022-12-19T13:28:53.796Z,26.00
2022-12-19T13:32:12.616Z,25.10
2022-12-19T13:37:02.960Z,25.67
2022-12-19T13:39:58.315Z,28.07
2022-12-19T13:42:43.662Z,28.70
2022-12-19T13:45:53.242Z,28.80
2022-12-19T13:49:03.277Z,25.30
2022-12-19T13:52:08.055Z,28.27
2022-12-19T13:55:15.279Z,27.30
2022-12-19T13:58:28.958Z,27.67
2022-12-19T14:01:35.212Z,29.17
2022-12-19T14:04:41.994Z,30.83
2022-12-19T14:07:47.020Z,25.57
2022-12-19T14:11:41.677Z,28.90
2022-12-19T14:14:35.547Z,30.63
2022-12-19T14:17:38.708Z,28.30
2022-12-19T14:22:06.091Z,29.37
2022-12-19T14:24:17.086Z,27.23
2022-12-19T14:28:17.163Z,28.70
2022-12-19T14:30:48.757Z,29.37
2022-12-19T14:34:18.565Z,28.33
2022-12-19T14:39:19.821Z,31.07
2022-12-19T14:41:08.268Z,29.40
2022-12-19T14:52:35.815Z,29.67
2022-12-19T14:54:13.167Z,30.57
2022-12-19T14:54:28.084Z,30.73
2022-12-19T14:58:56.164Z,32.30
2022-12-19T15:01:36.686Z,30.57
2022-12-19T15:04:48.281Z,29.73
2022-12-19T15:07:59.996Z,31.83
2022-12-19T15:11:42.914Z,29.60
2022-12-19T15:14:58.998Z,28.13
2022-12-19T15:18:15.364Z,27.40
2022-12-19T15:21:18.610Z,28.47
2022-12-19T15:24:21.790Z,27.63
2022-12-19T15:27:27.429Z,28.37
2022-12-19T15:30:33.753Z,30.27
2022-12-19T15:33:48.027Z,31.83
2022-12-19T15:36:59.971Z,30.07
2022-12-19T15:40:03.117Z,30.37
2022-12-19T15:43:14.334Z,28.63
2022-12-19T15:46:31.451Z,29.90
2022-12-19T15:49:35.333Z,29.30
2022-12-19T15:52:38.546Z,32.10
2022-12-19T15:55:43.030Z,31.07
2022-12-19T15:58:47.491Z,31.17
2022-12-19T16:01:50.904Z,29.30
2022-12-19T16:05:01.601Z,34.30
2022-12-19T16:08:11.708Z,28.77
2022-12-19T16:11:20.700Z,29.77
2022-12-19T16:14:30.166Z,31.00
2022-12-19T16:17:35.371Z,30.40
2022-12-19T16:20:39.514Z,31.70
2022-12-19T16:23:43.062Z,29.60
2022-12-19T16:26:52.308Z,30.03
2022-12-19T16:29:57.655Z,30.97
2022-12-19T16:33:01.205Z,29.60
2022-12-19T16:36:06.646Z,32.13
2022-12-19T16:39:10.687Z,31.60
2022-12-19T16:42:17.263Z,28.90
2022-12-19T16:45:24.550Z,28.70
2022-12-19T16:48:29.810Z,29.43
2022-12-19T16:51:33.065Z,27.27
2022-12-19T16:54:36.254Z,32.20
2022-12-19T16:57:39.540Z,28.70
2022-12-19T17:00:44.987Z,29.77
2022-12-19T17:03:48.227Z,30.07
2022-12-19T17:06:52.439Z,29.27
2022-12-19T17:09:55.565Z,29.03
2022-12-19T17:13:00.224Z,29.87
2022-12-19T17:16:05.927Z,30.70
2022-12-19T17:19:12.359Z,29.87
2022-12-19T17:22:17.475Z,30.90
2022-12-19T17:25:23.892Z,31.57
2022-12-19T17:28:27.253Z,29.63
2022-12-19T17:31:38.077Z,30.13
2022-12-19T17:34:41.568Z,32.73
2022-12-19T17:37:46.775Z,31.00
2022-12-19T17:40:49.906Z,28.87
2022-12-19T17:43:53.368Z,30.30
2022-12-19T17:46:57.909Z,28.80
2022-12-19T17:50:01.280Z,32.77
2022-12-19T17:53:04.611Z,26.97
2022-12-19T17:56:12.588Z,31.40
2022-12-19T17:59:15.834Z,28.03
2022-12-19T18:02:24.338Z,31.50
2022-12-19T18:05:29.851Z,29.73
2022-12-19T18:08:34.115Z,29.80
2022-12-19T18:11:41.812Z,31.30
2022-12-19T18:14:45.497Z,30.50
2022-12-19T18:17:51.527Z,29.70
2022-12-19T18:20:55.195Z,30.80
2022-12-19T18:23:58.449Z,27.77
2022-12-19T18:27:01.562Z,28.77
2022-12-19T18:30:06.453Z,31.10
2022-12-19T18:33:16.522Z,29.13
2022-12-19T18:36:22.264Z,30.20
2022-12-19T18:39:27.456Z,29.47
2022-12-19T18:42:30.581Z,29.57
2022-12-19T18:45:36.599Z,32.50
2022-12-19T18:48:42.469Z,32.17
2022-12-19T18:51:47.405Z,34.17
2022-12-19T18:54:52.030Z,30.60
2022-12-19T18:57:56.009Z,30.67
2022-12-19T19:01:01.041Z,31.43
2022-12-19T19:04:07.481Z,31.93
2022-12-19T19:07:11.580Z,30.87
2022-12-19T19:10:21.037Z,34.07
2022-12-19T19:13:25.923Z,28.53
2022-12-19T19:16:29.943Z,31.97
2022-12-19T19:19:35.229Z,32.83
2022-12-19T19:22:40.121Z,32.50
2022-12-19T19:25:43.677Z,31.60
2022-12-19T19:28:51.928Z,32.77
2022-12-19T19:31:55.928Z,29.40
2022-12-19T19:35:01.339Z,30.43
2022-12-19T19:38:08.571Z,35.60
2022-12-19T19:41:12.850Z,37.10
2022-12-19T19:44:16.429Z,40.57
2022-12-19T19:47:26.969Z,36.03
2022-12-19T19:50:32.582Z,33.33
2022-12-19T19:53:37.590Z,30.80
2022-12-19T19:56:41.395Z,32.40
2022-12-19T19:59:45.520Z,28.70
2022-12-19T20:02:49.277Z,30.20
2022-12-19T20:06:01.194Z,30.80
2022-12-19T20:09:04.924Z,31.43
2022-12-19T20:12:08.500Z,32.13
2022-12-19T20:15:12.288Z,29.80
2022-12-19T20:18:16.738Z,29.60
2022-12-19T20:21:21.923Z,29.93
2022-12-19T20:24:25.149Z,29.13
2022-12-19T20:27:28.434Z,29.37
2022-12-19T20:30:32.468Z,27.23
2022-12-19T20:33:36.094Z,30.80
2022-12-19T20:36:41.560Z,26.90
2022-12-19T20:39:45.048Z,28.10
2022-12-19T20:42:48.226Z,26.40
2022-12-19T20:45:52.076Z,24.80
2022-12-19T20:48:55.531Z,28.23
2022-12-19T20:52:00.349Z,27.20
2022-12-19T20:55:03.564Z,25.73
2022-12-19T20:58:06.729Z,30.93
2022-12-19T21:01:11.536Z,28.43
2022-12-19T21:04:15.558Z,27.00
2022-12-19T21:07:20.248Z,29.20
2022-12-19T21:10:23.362Z,24.90
2022-12-19T21:13:26.466Z,27.63
2022-12-19T21:16:29.703Z,29.43
2022-12-19T21:19:32.957Z,27.17
2022-12-19T21:22:37.510Z,28.73
2022-12-19T21:25:40.669Z,25.97
2022-12-19T21:28:44.112Z,25.77
2022-12-19T21:31:47.696Z,24.80
2022-12-19T21:34:53.455Z,27.20
2022-12-19T21:37:58.073Z,23.93
2022-12-19T21:41:03.921Z,25.57
2022-12-19T21:44:07.067Z,23.07
2022-12-19T21:47:10.339Z,25.70
2022-12-19T21:50:16.387Z,25.10
2022-12-19T21:53:20.898Z,24.50
2022-12-19T21:56:26.260Z,27.13
2022-12-19T21:59:29.383Z,26.00
2022-12-19T22:02:32.641Z,26.50
2022-12-19T22:05:35.961Z,26.20
2022-12-19T22:08:40.464Z,25.47
2022-12-19T22:11:44.420Z,25.10
2022-12-19T22:14:47.685Z,25.23
2022-12-19T22:17:50.825Z,24.87
2022-12-19T22:20:58.812Z,24.30
2022-12-19T22:24:04.769Z,24.50
2022-12-19T22:27:07.911Z,24.83
2022-12-19T22:30:11.632Z,24.10
2022-12-19T22:33:14.775Z,24.93
2022-12-19T22:36:25.806Z,24.03
2022-12-19T22:39:32.413Z,23.70
2022-12-19T22:42:35.673Z,22.47
2022-12-19T22:45:38.811Z,25.63
2022-12-19T22:48:42.355Z,24.00
2022-12-19T22:51:45.586Z,24.37
2022-12-19T22:54:50.073Z,24.40
2022-12-19T22:57:53.306Z,25.43
2022-12-19T23:00:56.381Z,24.40
2022-12-19T23:04:00.733Z,25.63
2022-12-19T23:07:04.024Z,25.90
2022-12-19T23:10:10.048Z,25.73
2022-12-19T23:13:13.180Z,25.60
2022-12-19T23:16:17.015Z,23.67
2022-12-19T23:19:20.160Z,25.10
2022-12-19T23:22:23.307Z,22.90
2022-12-19T23:25:27.919Z,23.20
2022-12-19T23:28:31.026Z,23.00
2022-12-19T23:31:34.731Z,23.63
2022-12-19T23:34:38.559Z,23.37
2022-12-19T23:37:41.668Z,25.40
2022-12-19T23:40:46.142Z,24.10
2022-12-19T23:43:49.281Z,25.40
2022-12-19T23:46:54.627Z,25.60
2022-12-19T23:50:02.364Z,25.20
2022-12-19T23:53:05.472Z,24.93
2022-12-19T23:56:13.906Z,25.07
2022-12-19T23:59:17.076Z,28.20
